sensor_id;sensor_type;location;lat;lon;timestamp;P1;durP1;ratioP1;P2;durP2;ratioP2
15843;SDS011;50807;52.436;13.346;2022-12-18T00:00:02;22.60;;;14.18;;
15843;SDS011;50807;52.436;13.346;2022-12-18T00:00:39;15.23;;;13.32;;
15843;SDS011;50807;52.436;13.346;2022-12-18T00:01:14;19.27;;;15.00;;
15843;SDS011;50807;52.436;13.346;2022-12-18T00:01:47;18.15;;;13.85;;
15843;SDS011;50807;52.436;13.346;2022-12-18T00:02:18;16.77;;;13.40;;
15843;SDS011;50807;52.436;13.346;2022-12-18T00:02:50;16.90;;;13.93;;
15843;SDS011;50807;52.436;13.346;2022-12-18T00:03:21;18.47;;;15.37;;
15843;SDS011;50807;52.436;13.346;2022-12-18T00:03:52;18.93;;;15.67;;
15843;SDS011;50807;52.436;13.346;2022-12-18T00:04:24;22.17;;;14.75;;
15843;SDS011;50807;52.436;13.346;2022-12-18T00:04:57;23.65;;;15.43;;
15843;SDS011;50807;52.436;13.346;2022-12-18T00:05:28;17.83;;;14.57;;
15843;SDS011;50807;52.436;13.346;2022-12-18T00:06:00;18.38;;;12.63;;
15843;SDS011;50807;52.436;13.346;2022-12-18T00:06:32;21.02;;;14.68;;
15843;SDS011;50807;52.436;13.346;2022-12-18T00:07:06;21.30;;;15.60;;
15843;SDS011;50807;52.436;13.346;2022-12-18T00:07:37;17.90;;;15.23;;
15843;SDS011;50807;52.436;13.346;2022-12-18T00:08:08;18.60;;;15.02;;
15843;SDS011;50807;52.436;13.346;2022-12-18T00:08:39;24.87;;;16.03;;
15843;SDS011;50807;52.436;13.346;2022-12-18T00:09:10;20.92;;;16.33;;
15843;SDS011;50807;52.436;13.346;2022-12-18T00:09:41;24.77;;;16.20;;
15843;SDS011;50807;52.436;13.346;2022-12-18T00:10:12;26.05;;;15.55;;
15843;SDS011;50807;52.436;13.346;2022-12-18T00:10:43;21.27;;;16.40;;
15843;SDS011;50807;52.436;13.346;2022-12-18T00:11:15;19.58;;;16.33;;
15843;SDS011;50807;52.436;13.346;2022-12-18T00:11:48;20.02;;;16.83;;
15843;SDS011;50807;52.436;13.346;2022-12-18T00:12:20;20.60;;;16.77;;
15843;SDS011;50807;52.436;13.346;2022-12-18T00:12:50;19.20;;;15.50;;
15843;SDS011;50807;52.436;13.346;2022-12-18T00:13:21;21.17;;;16.80;;
15843;SDS011;50807;52.436;13.346;2022-12-18T00:13:53;20.85;;;16.95;;
15843;SDS011;50807;52.436;13.346;2022-12-18T00:14:26;23.45;;;17.35;;
15843;SDS011;50807;52.436;13.346;2022-12-18T00:14:57;20.43;;;16.93;;
15843;SDS011;50807;52.436;13.346;2022-12-18T00:15:29;23.92;;;18.38;;
15843;SDS011;50807;52.436;13.346;2022-12-18T00:16:01;19.73;;;16.07;;
15843;SDS011;50807;52.436;13.346;2022-12-18T00:16:33;20.75;;;16.75;;
15843;SDS011;50807;52.436;13.346;2022-12-18T00:17:05;21.85;;;17.35;;
15843;SDS011;50807;52.436;13.346;2022-12-18T00:17:37;22.25;;;16.58;;
15843;SDS011;50807;52.436;13.346;2022-12-18T00:18:07;22.40;;;17.10;;
15843;SDS011;50807;52.436;13.346;2022-12-18T00:18:38;24.08;;;17.35;;
15843;SDS011;50807;52.436;13.346;2022-12-18T00:19:11;20.90;;;16.15;;
15843;SDS011;50807;52.436;13.346;2022-12-18T00:19:43;22.88;;;17.30;;
15843;SDS011;50807;52.436;13.346;2022-12-18T00:20:15;23.73;;;16.27;;
15843;SDS011;50807;52.436;13.346;2022-12-18T00:20:50;24.70;;;16.70;;
15843;SDS011;50807;52.436;13.346;2022-12-18T00:21:21;23.57;;;17.67;;
15843;SDS011;50807;52.436;13.346;2022-12-18T00:21:53;21.80;;;16.05;;
15843;SDS011;50807;52.436;13.346;2022-12-18T00:22:25;21.93;;;17.60;;
15843;SDS011;50807;52.436;13.346;2022-12-18T00:22:56;21.38;;;16.88;;
15843;SDS011;50807;52.436;13.346;2022-12-18T00:23:28;23.27;;;16.23;;
15843;SDS011;50807;52.436;13.346;2022-12-18T00:24:00;21.17;;;16.90;;
15843;SDS011;50807;52.436;13.346;2022-12-18T00:24:31;21.90;;;17.17;;
15843;SDS011;50807;52.436;13.346;2022-12-18T00:25:03;18.63;;;16.17;;
15843;SDS011;50807;52.436;13.346;2022-12-18T00:25:34;24.42;;;17.67;;
15843;SDS011;50807;52.436;13.346;2022-12-18T00:26:07;23.35;;;17.48;;
15843;SDS011;50807;52.436;13.346;2022-12-18T00:26:42;22.95;;;18.02;;
15843;SDS011;50807;52.436;13.346;2022-12-18T00:27:12;20.73;;;16.60;;
15843;SDS011;50807;52.436;13.346;2022-12-18T00:27:43;20.23;;;16.73;;
15843;SDS011;50807;52.436;13.346;2022-12-18T00:28:15;23.35;;;15.43;;
15843;SDS011;50807;52.436;13.346;2022-12-18T00:28:46;20.53;;;16.20;;
15843;SDS011;50807;52.436;13.346;2022-12-18T00:29:17;25.45;;;16.10;;
15843;SDS011;50807;52.436;13.346;2022-12-18T00:29:49;24.55;;;16.42;;
15843;SDS011;50807;52.436;13.346;2022-12-18T00:30:20;34.30;;;17.07;;
15843;SDS011;50807;52.436;13.346;2022-12-18T00:30:51;27.60;;;16.07;;
15843;SDS011;50807;52.436;13.346;2022-12-18T00:31:32;20.65;;;16.50;;
15843;SDS011;50807;52.436;13.346;2022-12-18T00:32:04;20.63;;;15.95;;
15843;SDS011;50807;52.436;13.346;2022-12-18T00:32:34;19.87;;;16.43;;
15843;SDS011;50807;52.436;13.346;2022-12-18T00:33:05;21.63;;;16.20;;
15843;SDS011;50807;52.436;13.346;2022-12-18T00:33:37;21.23;;;17.00;;
15843;SDS011;50807;52.436;13.346;2022-12-18T00:34:09;20.98;;;16.33;;
15843;SDS011;50807;52.436;13.346;2022-12-18T00:34:41;22.80;;;15.90;;
15843;SDS011;50807;52.436;13.346;2022-12-18T00:35:13;23.27;;;16.00;;
15843;SDS011;50807;52.436;13.346;2022-12-18T00:35:44;23.17;;;16.97;;
15843;SDS011;50807;52.436;13.346;2022-12-18T00:36:16;26.13;;;16.50;;
15843;SDS011;50807;52.436;13.346;2022-12-18T00:36:49;21.50;;;15.88;;
15843;SDS011;50807;52.436;13.346;2022-12-18T00:37:21;22.80;;;17.55;;
15843;SDS011;50807;52.436;13.346;2022-12-18T00:37:53;20.60;;;15.87;;
15843;SDS011;50807;52.436;13.346;2022-12-18T00:38:24;22.10;;;16.48;;
15843;SDS011;50807;52.436;13.346;2022-12-18T00:38:55;22.40;;;17.73;;
15843;SDS011;50807;52.436;13.346;2022-12-18T00:39:29;22.50;;;17.60;;
15843;SDS011;50807;52.436;13.346;2022-12-18T00:40:00;21.77;;;16.70;;
15843;SDS011;50807;52.436;13.346;2022-12-18T00:40:31;21.95;;;16.77;;
15843;SDS011;50807;52.436;13.346;2022-12-18T00:41:03;20.17;;;16.85;;
15843;SDS011;50807;52.436;13.346;2022-12-18T00:41:35;22.95;;;18.17;;
15843;SDS011;50807;52.436;13.346;2022-12-18T00:42:24;26.65;;;16.42;;
15843;SDS011;50807;52.436;13.346;2022-12-18T00:43:13;19.73;;;16.38;;
15843;SDS011;50807;52.436;13.346;2022-12-18T00:43:44;23.23;;;17.30;;
15843;SDS011;50807;52.436;13.346;2022-12-18T00:44:16;26.57;;;17.07;;
15843;SDS011;50807;52.436;13.346;2022-12-18T00:44:49;22.48;;;17.75;;
15843;SDS011;50807;52.436;13.346;2022-12-18T00:45:20;25.40;;;18.87;;
15843;SDS011;50807;52.436;13.346;2022-12-18T00:45:54;23.98;;;17.90;;
15843;SDS011;50807;52.436;13.346;2022-12-18T00:46:26;22.88;;;18.30;;
15843;SDS011;50807;52.436;13.346;2022-12-18T00:46:57;21.53;;;16.90;;
15843;SDS011;50807;52.436;13.346;2022-12-18T00:47:27;23.33;;;18.20;;
15843;SDS011;50807;52.436;13.346;2022-12-18T00:47:58;23.47;;;18.50;;
15843;SDS011;50807;52.436;13.346;2022-12-18T00:48:30;21.98;;;17.92;;
15843;SDS011;50807;52.436;13.346;2022-12-18T00:49:01;24.27;;;18.98;;
15843;SDS011;50807;52.436;13.346;2022-12-18T00:49:33;21.35;;;17.83;;
15843;SDS011;50807;52.436;13.346;2022-12-18T00:50:05;21.63;;;17.55;;
15843;SDS011;50807;52.436;13.346;2022-12-18T00:50:37;22.38;;;18.20;;
15843;SDS011;50807;52.436;13.346;2022-12-18T00:51:08;21.07;;;16.60;;
15843;SDS011;50807;52.436;13.346;2022-12-18T00:51:39;23.73;;;17.90;;
15843;SDS011;50807;52.436;13.346;2022-12-18T00:52:11;24.42;;;18.85;;
15843;SDS011;50807;52.436;13.346;2022-12-18T00:52:41;25.23;;;17.83;;
15843;SDS011;50807;52.436;13.346;2022-12-18T00:53:14;23.55;;;18.55;;
15843;SDS011;50807;52.436;13.346;2022-12-18T00:53:46;25.58;;;17.55;;
15843;SDS011;50807;52.436;13.346;2022-12-18T00:54:17;23.23;;;17.77;;
15843;SDS011;50807;52.436;13.346;2022-12-18T00:54:48;22.52;;;17.23;;
15843;SDS011;50807;52.436;13.346;2022-12-18T00:55:19;23.70;;;18.97;;
15843;SDS011;50807;52.436;13.346;2022-12-18T00:55:50;22.23;;;17.55;;
15843;SDS011;50807;52.436;13.346;2022-12-18T00:56:21;23.63;;;18.23;;
15843;SDS011;50807;52.436;13.346;2022-12-18T00:56:52;26.42;;;18.92;;
15843;SDS011;50807;52.436;13.346;2022-12-18T00:57:25;20.88;;;17.15;;
15843;SDS011;50807;52.436;13.346;2022-12-18T00:57:55;22.33;;;18.23;;
15843;SDS011;50807;52.436;13.346;2022-12-18T00:58:26;25.17;;;17.83;;
15843;SDS011;50807;52.436;13.346;2022-12-18T00:58:58;28.70;;;17.60;;
15843;SDS011;50807;52.436;13.346;2022-12-18T00:59:28;23.83;;;17.93;;
15843;SDS011;50807;52.436;13.346;2022-12-18T01:00:00;32.97;;;19.52;;
15843;SDS011;50807;52.436;13.346;2022-12-18T01:00:31;30.85;;;18.15;;
15843;SDS011;50807;52.436;13.346;2022-12-18T01:01:03;29.08;;;18.83;;
15843;SDS011;50807;52.436;13.346;2022-12-18T01:01:34;27.17;;;18.10;;
15843;SDS011;50807;52.436;13.346;2022-12-18T01:02:06;27.15;;;16.98;;
15843;SDS011;50807;52.436;13.346;2022-12-18T01:02:37;40.87;;;18.33;;
15843;SDS011;50807;52.436;13.346;2022-12-18T01:03:09;27.73;;;18.13;;
15843;SDS011;50807;52.436;13.346;2022-12-18T01:03:43;27.17;;;16.42;;
15843;SDS011;50807;52.436;13.346;2022-12-18T01:04:15;22.38;;;17.30;;
15843;SDS011;50807;52.436;13.346;2022-12-18T01:04:45;27.20;;;18.23;;
15843;SDS011;50807;52.436;13.346;2022-12-18T01:05:16;21.67;;;17.37;;
15843;SDS011;50807;52.436;13.346;2022-12-18T01:05:48;27.50;;;17.55;;
15843;SDS011;50807;52.436;13.346;2022-12-18T01:06:19;25.20;;;17.87;;
15843;SDS011;50807;52.436;13.346;2022-12-18T01:06:50;21.83;;;17.40;;
15843;SDS011;50807;52.436;13.346;2022-12-18T01:07:21;21.70;;;17.05;;
15843;SDS011;50807;52.436;13.346;2022-12-18T01:07:52;23.97;;;17.70;;
15843;SDS011;50807;52.436;13.346;2022-12-18T01:08:25;23.05;;;17.52;;
15843;SDS011;50807;52.436;13.346;2022-12-18T01:08:55;20.67;;;17.15;;
15843;SDS011;50807;52.436;13.346;2022-12-18T01:09:27;21.00;;;17.65;;
15843;SDS011;50807;52.436;13.346;2022-12-18T01:09:58;21.23;;;16.92;;
15843;SDS011;50807;52.436;13.346;2022-12-18T01:10:29;22.30;;;17.10;;
15843;SDS011;50807;52.436;13.346;2022-12-18T01:11:01;28.45;;;18.17;;
15843;SDS011;50807;52.436;13.346;2022-12-18T01:11:38;23.60;;;17.65;;
15843;SDS011;50807;52.436;13.346;2022-12-18T01:12:09;21.48;;;16.73;;
15843;SDS011;50807;52.436;13.346;2022-12-18T01:12:40;21.73;;;16.63;;
15843;SDS011;50807;52.436;13.346;2022-12-18T01:13:12;22.85;;;18.02;;
15843;SDS011;50807;52.436;13.346;2022-12-18T01:13:43;23.00;;;17.10;;
15843;SDS011;50807;52.436;13.346;2022-12-18T01:14:14;23.40;;;16.75;;
15843;SDS011;50807;52.436;13.346;2022-12-18T01:14:46;22.38;;;17.75;;
15843;SDS011;50807;52.436;13.346;2022-12-18T01:15:18;23.30;;;17.58;;
15843;SDS011;50807;52.436;13.346;2022-12-18T01:15:50;20.00;;;16.38;;
15843;SDS011;50807;52.436;13.346;2022-12-18T01:16:22;20.45;;;15.77;;
15843;SDS011;50807;52.436;13.346;2022-12-18T01:16:53;22.45;;;16.55;;
15843;SDS011;50807;52.436;13.346;2022-12-18T01:17:24;20.13;;;17.43;;
15843;SDS011;50807;52.436;13.346;2022-12-18T01:17:55;22.92;;;17.80;;
15843;SDS011;50807;52.436;13.346;2022-12-18T01:18:26;19.37;;;16.47;;
15843;SDS011;50807;52.436;13.346;2022-12-18T01:18:57;22.55;;;17.75;;
15843;SDS011;50807;52.436;13.346;2022-12-18T01:19:29;24.48;;;18.60;;
15843;SDS011;50807;52.436;13.346;2022-12-18T01:20:00;21.50;;;16.73;;
15843;SDS011;50807;52.436;13.346;2022-12-18T01:20:31;21.33;;;17.03;;
15843;SDS011;50807;52.436;13.346;2022-12-18T01:21:05;23.38;;;17.58;;
15843;SDS011;50807;52.436;13.346;2022-12-18T01:21:37;20.70;;;17.15;;
15843;SDS011;50807;52.436;13.346;2022-12-18T01:22:08;21.93;;;17.07;;
15843;SDS011;50807;52.436;13.346;2022-12-18T01:22:40;19.45;;;16.67;;
15843;SDS011;50807;52.436;13.346;2022-12-18T01:23:10;22.53;;;18.17;;
15843;SDS011;50807;52.436;13.346;2022-12-18T01:23:42;23.33;;;17.63;;
15843;SDS011;50807;52.436;13.346;2022-12-18T01:24:13;19.73;;;16.60;;
15843;SDS011;50807;52.436;13.346;2022-12-18T01:24:45;22.88;;;17.80;;
15843;SDS011;50807;52.436;13.346;2022-12-18T01:25:16;21.87;;;17.23;;
15843;SDS011;50807;52.436;13.346;2022-12-18T01:25:47;22.67;;;17.83;;
15843;SDS011;50807;52.436;13.346;2022-12-18T01:26:18;22.85;;;18.35;;
15843;SDS011;50807;52.436;13.346;2022-12-18T01:26:50;22.80;;;18.30;;
15843;SDS011;50807;52.436;13.346;2022-12-18T01:27:20;22.13;;;17.43;;
15843;SDS011;50807;52.436;13.346;2022-12-18T01:27:51;20.97;;;16.07;;
15843;SDS011;50807;52.436;13.346;2022-12-18T01:28:23;22.10;;;17.85;;
15843;SDS011;50807;52.436;13.346;2022-12-18T01:28:54;22.10;;;17.90;;
15843;SDS011;50807;52.436;13.346;2022-12-18T01:29:26;24.08;;;18.17;;
15843;SDS011;50807;52.436;13.346;2022-12-18T01:29:58;23.70;;;18.67;;
15843;SDS011;50807;52.436;13.346;2022-12-18T01:30:29;23.57;;;17.73;;
15843;SDS011;50807;52.436;13.346;2022-12-18T01:31:09;20.87;;;16.37;;
15843;SDS011;50807;52.436;13.346;2022-12-18T01:31:46;21.75;;;17.15;;
15843;SDS011;50807;52.436;13.346;2022-12-18T01:32:17;20.20;;;15.53;;
15843;SDS011;50807;52.436;13.346;2022-12-18T01:32:47;21.77;;;16.23;;
15843;SDS011;50807;52.436;13.346;2022-12-18T01:33:19;23.42;;;17.23;;
15843;SDS011;50807;52.436;13.346;2022-12-18T01:33:50;22.17;;;16.60;;
15843;SDS011;50807;52.436;13.346;2022-12-18T01:34:22;25.17;;;16.98;;
15843;SDS011;50807;52.436;13.346;2022-12-18T01:34:54;21.92;;;16.52;;
15843;SDS011;50807;52.436;13.346;2022-12-18T01:35:25;20.27;;;15.80;;
15843;SDS011;50807;52.436;13.346;2022-12-18T01:35:55;20.97;;;16.33;;
15843;SDS011;50807;52.436;13.346;2022-12-18T01:36:27;33.37;;;16.33;;
15843;SDS011;50807;52.436;13.346;2022-12-18T01:37:01;19.95;;;15.10;;
15843;SDS011;50807;52.436;13.346;2022-12-18T01:37:32;27.23;;;16.40;;
15843;SDS011;50807;52.436;13.346;2022-12-18T01:38:03;28.50;;;16.30;;
15843;SDS011;50807;52.436;13.346;2022-12-18T01:38:35;23.58;;;15.38;;
15843;SDS011;50807;52.436;13.346;2022-12-18T01:39:09;20.95;;;16.50;;
15843;SDS011;50807;52.436;13.346;2022-12-18T01:39:44;28.42;;;16.40;;
15843;SDS011;50807;52.436;13.346;2022-12-18T01:40:15;20.90;;;15.77;;
15843;SDS011;50807;52.436;13.346;2022-12-18T01:40:46;22.08;;;15.98;;
15843;SDS011;50807;52.436;13.346;2022-12-18T01:41:18;19.77;;;15.90;;
15843;SDS011;50807;52.436;13.346;2022-12-18T01:41:53;18.25;;;14.80;;
15843;SDS011;50807;52.436;13.346;2022-12-18T01:42:32;20.38;;;16.75;;
15843;SDS011;50807;52.436;13.346;2022-12-18T01:43:04;21.67;;;17.35;;
15843;SDS011;50807;52.436;13.346;2022-12-18T01:43:45;20.73;;;16.37;;
15843;SDS011;50807;52.436;13.346;2022-12-18T01:45:26;19.17;;;15.00;;
15843;SDS011;50807;52.436;13.346;2022-12-18T01:45:59;20.98;;;16.67;;
15843;SDS011;50807;52.436;13.346;2022-12-18T01:46:30;20.90;;;16.63;;
15843;SDS011;50807;52.436;13.346;2022-12-18T01:47:02;19.65;;;16.33;;
15843;SDS011;50807;52.436;13.346;2022-12-18T01:47:37;22.35;;;17.02;;
15843;SDS011;50807;52.436;13.346;2022-12-18T01:48:11;23.48;;;17.40;;
15843;SDS011;50807;52.436;13.346;2022-12-18T01:48:43;19.88;;;16.58;;
15843;SDS011;50807;52.436;13.346;2022-12-18T01:49:18;22.35;;;17.05;;
15843;SDS011;50807;52.436;13.346;2022-12-18T01:49:49;19.37;;;15.90;;
15843;SDS011;50807;52.436;13.346;2022-12-18T01:50:22;21.70;;;17.50;;
15843;SDS011;50807;52.436;13.346;2022-12-18T01:50:59;22.27;;;17.00;;
15843;SDS011;50807;52.436;13.346;2022-12-18T01:51:31;20.55;;;16.63;;
15843;SDS011;50807;52.436;13.346;2022-12-18T01:52:02;20.43;;;16.93;;
15843;SDS011;50807;52.436;13.346;2022-12-18T01:52:32;21.53;;;16.30;;
15843;SDS011;50807;52.436;13.346;2022-12-18T01:53:07;20.92;;;16.42;;
15843;SDS011;50807;52.436;13.346;2022-12-18T01:53:43;18.65;;;15.77;;
15843;SDS011;50807;52.436;13.346;2022-12-18T01:54:17;20.17;;;16.58;;
15843;SDS011;50807;52.436;13.346;2022-12-18T01:54:49;20.75;;;16.73;;
15843;SDS011;50807;52.436;13.346;2022-12-18T01:55:22;20.67;;;16.83;;
15843;SDS011;50807;52.436;13.346;2022-12-18T01:55:58;20.58;;;17.23;;
15843;SDS011;50807;52.436;13.346;2022-12-18T01:56:31;21.58;;;16.95;;
15843;SDS011;50807;52.436;13.346;2022-12-18T01:57:01;21.97;;;17.57;;
15843;SDS011;50807;52.436;13.346;2022-12-18T01:57:33;20.85;;;16.63;;
15843;SDS011;50807;52.436;13.346;2022-12-18T01:58:04;20.88;;;17.30;;
15843;SDS011;50807;52.436;13.346;2022-12-18T01:58:38;20.38;;;17.15;;
15843;SDS011;50807;52.436;13.346;2022-12-18T01:59:18;19.40;;;15.20;;
15843;SDS011;50807;52.436;13.346;2022-12-18T01:59:50;21.27;;;16.80;;
15843;SDS011;50807;52.436;13.346;2022-12-18T02:00:25;20.10;;;15.93;;
15843;SDS011;50807;52.436;13.346;2022-12-18T02:00:58;21.17;;;17.15;;
15843;SDS011;50807;52.436;13.346;2022-12-18T02:01:29;21.80;;;16.60;;
15843;SDS011;50807;52.436;13.346;2022-12-18T02:02:03;19.85;;;16.27;;
15843;SDS011;50807;52.436;13.346;2022-12-18T02:02:33;22.07;;;17.67;;
15843;SDS011;50807;52.436;13.346;2022-12-18T02:03:05;20.55;;;16.55;;
15843;SDS011;50807;52.436;13.346;2022-12-18T02:03:37;22.60;;;16.67;;
15843;SDS011;50807;52.436;13.346;2022-12-18T02:04:18;19.52;;;16.20;;
15843;SDS011;50807;52.436;13.346;2022-12-18T02:04:51;19.20;;;15.77;;
15843;SDS011;50807;52.436;13.346;2022-12-18T02:05:24;21.60;;;16.42;;
15843;SDS011;50807;52.436;13.346;2022-12-18T02:06:11;20.30;;;15.73;;
15843;SDS011;50807;52.436;13.346;2022-12-18T02:06:48;21.70;;;14.95;;
15843;SDS011;50807;52.436;13.346;2022-12-18T02:07:28;25.58;;;17.08;;
15843;SDS011;50807;52.436;13.346;2022-12-18T02:08:13;20.38;;;16.17;;
15843;SDS011;50807;52.436;13.346;2022-12-18T02:08:56;18.33;;;14.63;;
15843;SDS011;50807;52.436;13.346;2022-12-18T02:09:40;17.40;;;14.80;;
15843;SDS011;50807;52.436;13.346;2022-12-18T02:10:19;20.45;;;15.80;;
15843;SDS011;50807;52.436;13.346;2022-12-18T02:11:01;18.38;;;14.00;;
15843;SDS011;50807;52.436;13.346;2022-12-18T02:11:42;20.10;;;16.05;;
15843;SDS011;50807;52.436;13.346;2022-12-18T02:12:24;19.40;;;15.20;;
15843;SDS011;50807;52.436;13.346;2022-12-18T02:13:06;19.45;;;14.65;;
15843;SDS011;50807;52.436;13.346;2022-12-18T02:13:46;21.35;;;15.32;;
15843;SDS011;50807;52.436;13.346;2022-12-18T02:14:33;17.45;;;14.05;;
15843;SDS011;50807;52.436;13.346;2022-12-18T02:15:14;22.08;;;14.13;;
15843;SDS011;50807;52.436;13.346;2022-12-18T02:15:54;18.48;;;15.23;;
15843;SDS011;50807;52.436;13.346;2022-12-18T02:16:38;18.67;;;14.40;;
15843;SDS011;50807;52.436;13.346;2022-12-18T02:17:16;18.88;;;14.48;;
15843;SDS011;50807;52.436;13.346;2022-12-18T02:17:54;17.90;;;14.60;;
15843;SDS011;50807;52.436;13.346;2022-12-18T02:18:32;17.55;;;14.70;;
15843;SDS011;50807;52.436;13.346;2022-12-18T02:19:11;19.17;;;15.43;;
15843;SDS011;50807;52.436;13.346;2022-12-18T02:20:20;21.48;;;15.00;;
15843;SDS011;50807;52.436;13.346;2022-12-18T02:20:59;21.48;;;14.80;;
15843;SDS011;50807;52.436;13.346;2022-12-18T02:21:45;21.38;;;15.10;;
15843;SDS011;50807;52.436;13.346;2022-12-18T02:22:26;19.00;;;15.00;;
15843;SDS011;50807;52.436;13.346;2022-12-18T02:23:10;19.70;;;15.02;;
15843;SDS011;50807;52.436;13.346;2022-12-18T02:23:56;20.95;;;15.55;;
15843;SDS011;50807;52.436;13.346;2022-12-18T02:24:51;20.50;;;15.38;;
15843;SDS011;50807;52.436;13.346;2022-12-18T02:25:40;19.02;;;14.43;;
15843;SDS011;50807;52.436;13.346;2022-12-18T02:26:41;17.58;;;14.32;;
15843;SDS011;50807;52.436;13.346;2022-12-18T02:27:18;18.67;;;14.25;;
15843;SDS011;50807;52.436;13.346;2022-12-18T02:27:50;19.40;;;14.35;;
15843;SDS011;50807;52.436;13.346;2022-12-18T02:28:25;18.50;;;14.73;;
15843;SDS011;50807;52.436;13.346;2022-12-18T02:29:02;18.80;;;15.70;;
15843;SDS011;50807;52.436;13.346;2022-12-18T02:29:40;20.98;;;16.25;;
15843;SDS011;50807;52.436;13.346;2022-12-18T02:30:19;18.95;;;15.82;;
15843;SDS011;50807;52.436;13.346;2022-12-18T02:30:51;26.63;;;17.25;;
15843;SDS011;50807;52.436;13.346;2022-12-18T02:31:30;19.90;;;16.25;;
15843;SDS011;50807;52.436;13.346;2022-12-18T02:32:11;21.58;;;15.77;;
15843;SDS011;50807;52.436;13.346;2022-12-18T02:32:48;21.10;;;16.42;;
15843;SDS011;50807;52.436;13.346;2022-12-18T02:33:23;20.63;;;16.63;;
15843;SDS011;50807;52.436;13.346;2022-12-18T02:33:59;18.88;;;15.35;;
15843;SDS011;50807;52.436;13.346;2022-12-18T02:34:34;19.50;;;14.90;;
15843;SDS011;50807;52.436;13.346;2022-12-18T02:35:11;21.58;;;16.25;;
15843;SDS011;50807;52.436;13.346;2022-12-18T02:35:47;23.10;;;16.50;;
15843;SDS011;50807;52.436;13.346;2022-12-18T02:36:20;22.70;;;16.58;;
15843;SDS011;50807;52.436;13.346;2022-12-18T02:36:53;20.65;;;16.20;;
15843;SDS011;50807;52.436;13.346;2022-12-18T02:37:27;19.33;;;15.80;;
15843;SDS011;50807;52.436;13.346;2022-12-18T02:38:02;21.30;;;16.42;;
15843;SDS011;50807;52.436;13.346;2022-12-18T02:38:34;25.60;;;16.23;;
15843;SDS011;50807;52.436;13.346;2022-12-18T02:39:07;21.27;;;16.00;;
15843;SDS011;50807;52.436;13.346;2022-12-18T02:39:43;20.38;;;16.02;;
15843;SDS011;50807;52.436;13.346;2022-12-18T02:40:17;20.02;;;16.27;;
15843;SDS011;50807;52.436;13.346;2022-12-18T02:40:51;19.40;;;16.08;;
15843;SDS011;50807;52.436;13.346;2022-12-18T02:41:27;21.65;;;15.85;;
15843;SDS011;50807;52.436;13.346;2022-12-18T02:42:00;23.88;;;18.05;;
15843;SDS011;50807;52.436;13.346;2022-12-18T02:42:37;21.35;;;17.10;;
15843;SDS011;50807;52.436;13.346;2022-12-18T02:43:10;26.08;;;17.05;;
15843;SDS011;50807;52.436;13.346;2022-12-18T02:43:48;20.83;;;15.80;;
15843;SDS011;50807;52.436;13.346;2022-12-18T02:44:23;30.00;;;16.33;;
15843;SDS011;50807;52.436;13.346;2022-12-18T02:44:54;21.15;;;16.10;;
15843;SDS011;50807;52.436;13.346;2022-12-18T02:45:25;20.70;;;16.30;;
15843;SDS011;50807;52.436;13.346;2022-12-18T02:45:59;23.58;;;16.20;;
15843;SDS011;50807;52.436;13.346;2022-12-18T02:46:56;27.88;;;16.63;;
15843;SDS011;50807;52.436;13.346;2022-12-18T02:47:27;32.27;;;16.37;;
15843;SDS011;50807;52.436;13.346;2022-12-18T02:48:03;30.50;;;16.92;;
15843;SDS011;50807;52.436;13.346;2022-12-18T02:48:34;21.58;;;16.65;;
15843;SDS011;50807;52.436;13.346;2022-12-18T02:49:12;21.00;;;15.85;;
15843;SDS011;50807;52.436;13.346;2022-12-18T02:50:02;21.30;;;15.80;;
15843;SDS011;50807;52.436;13.346;2022-12-18T02:50:44;24.45;;;15.40;;
15843;SDS011;50807;52.436;13.346;2022-12-18T02:51:29;27.83;;;16.13;;
15843;SDS011;50807;52.436;13.346;2022-12-18T02:52:21;22.95;;;15.73;;
15843;SDS011;50807;52.436;13.346;2022-12-18T02:53:04;24.42;;;15.77;;
15843;SDS011;50807;52.436;13.346;2022-12-18T02:53:48;25.48;;;16.55;;
15843;SDS011;50807;52.436;13.346;2022-12-18T02:54:36;22.25;;;15.70;;
15843;SDS011;50807;52.436;13.346;2022-12-18T02:55:25;27.17;;;15.27;;
15843;SDS011;50807;52.436;13.346;2022-12-18T02:56:09;23.58;;;15.18;;
15843;SDS011;50807;52.436;13.346;2022-12-18T02:56:53;19.80;;;15.05;;
15843;SDS011;50807;52.436;13.346;2022-12-18T02:57:31;20.98;;;15.27;;
15843;SDS011;50807;52.436;13.346;2022-12-18T02:58:11;24.27;;;16.58;;
15843;SDS011;50807;52.436;13.346;2022-12-18T02:58:52;21.27;;;15.88;;
15843;SDS011;50807;52.436;13.346;2022-12-18T02:59:30;20.83;;;15.55;;
15843;SDS011;50807;52.436;13.346;2022-12-18T03:00:13;21.90;;;15.93;;
15843;SDS011;50807;52.436;13.346;2022-12-18T03:00:50;21.55;;;14.50;;
15843;SDS011;50807;52.436;13.346;2022-12-18T03:01:30;20.52;;;15.15;;
15843;SDS011;50807;52.436;13.346;2022-12-18T03:02:16;20.60;;;15.43;;
15843;SDS011;50807;52.436;13.346;2022-12-18T03:02:56;20.73;;;15.75;;
15843;SDS011;50807;52.436;13.346;2022-12-18T03:03:35;19.42;;;15.02;;
15843;SDS011;50807;52.436;13.346;2022-12-18T03:04:13;21.58;;;16.60;;
15843;SDS011;50807;52.436;13.346;2022-12-18T03:04:53;22.48;;;16.23;;
15843;SDS011;50807;52.436;13.346;2022-12-18T03:05:30;21.33;;;15.38;;
15843;SDS011;50807;52.436;13.346;2022-12-18T03:06:10;23.20;;;17.15;;
15843;SDS011;50807;52.436;13.346;2022-12-18T03:06:48;22.83;;;17.05;;
15843;SDS011;50807;52.436;13.346;2022-12-18T03:07:26;20.80;;;16.55;;
15843;SDS011;50807;52.436;13.346;2022-12-18T03:08:12;21.65;;;16.80;;
15843;SDS011;50807;52.436;13.346;2022-12-18T03:08:49;25.38;;;16.40;;
15843;SDS011;50807;52.436;13.346;2022-12-18T03:09:27;25.50;;;17.15;;
15843;SDS011;50807;52.436;13.346;2022-12-18T03:10:04;21.98;;;15.90;;
15843;SDS011;50807;52.436;13.346;2022-12-18T03:10:41;25.25;;;16.67;;
15843;SDS011;50807;52.436;13.346;2022-12-18T03:11:18;22.38;;;16.90;;
15843;SDS011;50807;52.436;13.346;2022-12-18T03:12:15;21.20;;;16.73;;
15843;SDS011;50807;52.436;13.346;2022-12-18T03:12:54;21.58;;;16.50;;
15843;SDS011;50807;52.436;13.346;2022-12-18T03:13:33;24.67;;;16.70;;
15843;SDS011;50807;52.436;13.346;2022-12-18T03:14:10;23.30;;;16.40;;
15843;SDS011;50807;52.436;13.346;2022-12-18T03:14:46;23.23;;;17.63;;
15843;SDS011;50807;52.436;13.346;2022-12-18T03:15:23;20.77;;;16.73;;
15843;SDS011;50807;52.436;13.346;2022-12-18T03:16:03;23.25;;;17.08;;
15843;SDS011;50807;52.436;13.346;2022-12-18T03:16:40;21.73;;;16.17;;
15843;SDS011;50807;52.436;13.346;2022-12-18T03:17:14;19.88;;;15.43;;
15843;SDS011;50807;52.436;13.346;2022-12-18T03:17:52;19.65;;;15.45;;
15843;SDS011;50807;52.436;13.346;2022-12-18T03:18:30;21.75;;;16.02;;
15843;SDS011;50807;52.436;13.346;2022-12-18T03:19:08;22.83;;;16.98;;
15843;SDS011;50807;52.436;13.346;2022-12-18T03:19:45;24.70;;;17.58;;
15843;SDS011;50807;52.436;13.346;2022-12-18T03:20:19;23.52;;;17.50;;
15843;SDS011;50807;52.436;13.346;2022-12-18T03:20:53;22.00;;;16.75;;